Time;durP1;ratioP1;P1;durP2;ratioP2;P2;SDS_P1;SDS_P2;PMS_P1;PMS_P2;Temp;Humidity;BMP_temperature;BMP_pressure;BME280_temperature;BME280_humidity;BME280_pressure;Samples;Min_cycle;Max_cycle;Signal;HPM_P1;HPM_P2
2021/04/21 00:02:13;;;;;;;30.80;26.00;;;13.80;99.90;;;;;;5051511;28;20750;-80
2021/04/21 00:04:39;;;;;;;30.10;26.80;;;13.80;99.90;;;;;;5052276;28;20449;-82
2021/04/21 00:07:06;;;;;;;30.73;26.80;;;13.80;99.90;;;;;;5050726;28;20443;-81
2021/04/21 00:09:32;;;;;;;30.97;27.57;;;13.70;99.90;;;;;;5052126;28;20412;-81
2021/04/21 00:11:59;;;;;;;30.93;26.70;;;13.70;99.90;;;;;;5051791;28;20429;-81
2021/04/21 00:14:25;;;;;;;30.43;26.83;;;13.70;99.90;;;;;;5051526;28;20492;-81
2021/04/21 00:16:55;;;;;;;30.00;26.70;;;13.70;99.90;;;;;;5051664;28;20947;-81
2021/04/21 00:19:22;;;;;;;32.03;26.87;;;13.70;99.90;;;;;;5051085;28;20424;-81
2021/04/21 00:21:50;;;;;;;29.47;26.03;;;13.60;99.90;;;;;;5051972;28;20413;-81
2021/04/21 00:24:17;;;;;;;31.53;28.10;;;13.60;99.90;;;;;;5050294;28;20460;-81
2021/04/21 00:26:47;;;;;;;31.53;26.90;;;13.60;99.90;;;;;;5051712;28;20480;-81
2021/04/21 00:29:15;;;;;;;34.00;28.23;;;13.60;99.90;;;;;;5033074;28;20412;-80
2021/04/21 00:31:44;;;;;;;31.40;25.70;;;13.50;99.90;;;;;;5051919;28;20412;-81
2021/04/21 00:34:12;;;;;;;28.20;25.03;;;13.50;99.90;;;;;;5050752;28;20400;-81
2021/04/21 00:36:41;;;;;;;27.80;23.77;;;13.50;99.90;;;;;;5048194;28;20528;-81
2021/04/21 00:39:11;;;;;;;30.60;27.30;;;13.40;99.90;;;;;;5051028;28;20797;-81
2021/04/21 00:42:07;;;;;;;31.60;25.90;;;13.30;99.90;;;;;;5051403;28;20920;-81
2021/04/21 00:44:53;;;;;;;32.83;26.23;;;13.30;99.90;;;;;;5051802;28;20550;-81
2021/04/21 00:47:30;;;;;;;32.10;26.50;;;13.30;99.90;;;;;;5031219;28;20433;-81
2021/04/21 00:50:11;;;;;;;34.10;27.77;;;13.30;99.90;;;;;;5051754;28;20546;-82
2021/04/21 00:52:56;;;;;;;31.90;25.27;;;13.30;99.90;;;;;;5051874;28;20401;-81
2021/04/21 00:55:59;;;;;;;28.87;25.63;;;13.20;99.90;;;;;;5050335;28;20440;-81
2021/04/21 00:58:55;;;;;;;34.13;29.43;;;13.20;99.90;;;;;;5050928;28;20388;-81
2021/04/21 01:01:22;;;;;;;31.50;27.20;;;13.20;99.90;;;;;;5050621;28;20421;-81
2021/04/21 01:03:51;;;;;;;31.73;27.07;;;13.20;99.90;;;;;;5051338;28;20435;-81
2021/04/21 01:06:21;;;;;;;36.03;29.30;;;13.20;99.90;;;;;;5050103;28;20453;-81
2021/04/21 01:08:55;;;;;;;29.20;26.10;;;13.30;99.90;;;;;;5051561;28;20790;-81
2021/04/21 01:11:41;;;;;;;35.00;27.73;;;13.30;99.90;;;;;;5049347;28;20431;-81
2021/04/21 01:14:19;;;;;;;37.40;29.27;;;13.20;99.90;;;;;;5050331;28;20411;-80
2021/04/21 01:16:48;;;;;;;33.97;28.57;;;13.20;99.90;;;;;;5050325;28;20946;-81
2021/04/21 01:19:41;;;;;;;33.90;27.57;;;13.20;99.90;;;;;;5032723;28;20408;-81
2021/04/21 01:22:18;;;;;;;33.10;26.83;;;13.20;99.90;;;;;;5050891;28;20424;-80
2021/04/21 01:24:55;;;;;;;31.63;25.80;;;13.30;99.90;;;;;;5051441;28;20977;-81
2021/04/21 01:27:24;;;;;;;27.03;24.13;;;13.30;99.90;;;;;;5050868;28;20404;-81
2021/04/21 01:29:54;;;;;;;30.50;27.20;;;13.20;99.90;;;;;;5051287;28;20430;-81
2021/04/21 01:32:26;;;;;;;29.33;25.73;;;13.20;99.90;;;;;;5050186;28;20906;-81
2021/04/21 01:34:54;;;;;;;34.83;26.63;;;13.20;99.90;;;;;;5051418;28;20526;-81
2021/04/21 01:37:33;;;;;;;27.20;24.23;;;13.20;99.90;;;;;;5050550;28;20416;-80
2021/04/21 01:40:08;;;;;;;29.20;24.53;;;13.30;99.90;;;;;;5051438;28;20453;-79
2021/04/21 01:42:38;;;;;;;28.57;24.83;;;13.20;99.90;;;;;;5031736;28;20397;-81
2021/04/21 01:45:04;;;;;;;31.53;27.27;;;13.20;99.90;;;;;;5031999;28;20475;-80
2021/04/21 01:47:32;;;;;;;29.53;25.80;;;13.10;99.90;;;;;;5050717;28;20424;-80
2021/04/21 01:50:02;;;;;;;29.57;26.23;;;13.10;99.90;;;;;;5054440;28;20423;-80
2021/04/21 01:52:31;;;;;;;29.83;26.67;;;13.10;99.90;;;;;;5054018;28;20419;-81
2021/04/21 01:55:02;;;;;;;29.30;25.20;;;13.10;99.90;;;;;;5054530;28;20487;-81
2021/04/21 01:58:01;;;;;;;35.77;28.53;;;13.10;99.90;;;;;;5023242;28;20417;-81
2021/04/21 02:00:44;;;;;;;27.67;23.93;;;13.00;99.90;;;;;;5015512;28;20424;-82
2021/04/21 02:03:36;;;;;;;29.50;25.77;;;13.00;99.90;;;;;;5054100;28;20396;-79
2021/04/21 02:06:29;;;;;;;33.93;28.40;;;13.00;99.90;;;;;;5054367;28;20448;-81
2021/04/21 02:09:20;;;;;;;29.90;25.67;;;13.00;99.90;;;;;;5054619;28;20402;-82
2021/04/21 02:12:22;;;;;;;33.03;26.13;;;12.90;99.90;;;;;;5054523;28;20769;-82
2021/04/21 02:15:29;;;;;;;33.03;27.00;;;12.90;99.90;;;;;;5055014;28;20455;-82
2021/04/21 02:18:21;;;;;;;32.27;27.47;;;12.90;99.90;;;;;;5033574;28;20912;-83
2021/04/21 02:21:16;;;;;;;34.03;28.27;;;12.80;99.90;;;;;;5053460;28;20465;-81
2021/04/21 02:23:57;;;;;;;32.50;28.83;;;12.80;99.90;;;;;;5044508;28;20521;-81
2021/04/21 02:26:36;;;;;;;28.83;25.70;;;12.80;99.90;;;;;;5053331;28;20466;-82
2021/04/21 02:29:12;;;;;;;32.10;28.40;;;12.70;99.90;;;;;;5054004;28;20411;-82
2021/04/21 02:32:00;;;;;;;32.93;28.40;;;12.70;99.90;;;;;;5036522;28;20388;-82
2021/04/21 02:34:40;;;;;;;33.80;29.93;;;12.70;99.90;;;;;;5053261;28;20507;-81
2021/04/21 02:37:15;;;;;;;31.23;27.83;;;12.70;99.90;;;;;;5054214;28;20401;-81
2021/04/21 02:39:53;;;;;;;34.13;29.57;;;12.70;99.90;;;;;;5034185;28;20446;-81
2021/04/21 02:42:28;;;;;;;36.07;29.47;;;12.70;99.90;;;;;;5052188;28;20522;-81
2021/04/21 02:45:08;;;;;;;31.97;28.27;;;12.70;99.90;;;;;;5053969;28;20436;-81
2021/04/21 02:47:47;;;;;;;35.30;30.73;;;12.70;99.90;;;;;;5033570;28;20414;-81
2021/04/21 02:50:42;;;;;;;33.53;28.83;;;12.70;99.90;;;;;;5047363;28;20415;-79
2021/04/21 02:53:21;;;;;;;34.07;30.23;;;12.60;99.90;;;;;;5053666;28;20428;-82
2021/04/21 02:56:04;;;;;;;33.80;28.17;;;12.60;99.90;;;;;;5053263;28;20912;-82
2021/04/21 02:58:39;;;;;;;28.30;25.30;;;12.60;99.90;;;;;;5052459;28;21051;-82
2021/04/21 03:01:07;;;;;;;31.97;28.47;;;12.60;99.90;;;;;;5053699;28;20425;-82
2021/04/21 03:03:38;;;;;;;34.23;28.07;;;12.50;99.90;;;;;;5052818;28;21169;-82
2021/04/21 03:06:10;;;;;;;30.57;25.97;;;12.60;99.90;;;;;;5052886;28;20977;-82
2021/04/21 03:08:45;;;;;;;31.37;26.40;;;12.60;99.90;;;;;;5052896;28;20416;-82
2021/04/21 03:11:16;;;;;;;31.43;27.77;;;12.50;99.90;;;;;;5035229;28;20521;-80
2021/04/21 03:13:52;;;;;;;30.27;26.83;;;12.50;99.90;;;;;;5053810;28;20399;-82
2021/04/21 03:16:20;;;;;;;30.13;25.93;;;12.50;99.90;;;;;;5052444;28;20514;-81
2021/04/21 03:18:47;;;;;;;34.03;27.37;;;12.50;99.90;;;;;;5053428;28;20410;-82
2021/04/21 03:21:25;;;;;;;31.10;27.77;;;12.50;99.90;;;;;;5052640;28;20937;-80
2021/04/21 03:24:16;;;;;;;28.13;24.60;;;12.50;99.90;;;;;;5052998;28;20455;-82
2021/04/21 03:26:46;;;;;;;31.80;26.60;;;12.40;99.90;;;;;;5052998;28;20424;-81
2021/04/21 03:29:21;;;;;;;34.80;28.27;;;12.40;99.90;;;;;;5052722;28;20769;-79
2021/04/21 03:31:48;;;;;;;32.77;27.17;;;12.40;99.90;;;;;;5052902;28;20504;-81
2021/04/21 03:34:17;;;;;;;27.97;24.97;;;12.40;99.90;;;;;;5052443;28;20814;-80
2021/04/21 03:36:44;;;;;;;29.90;25.80;;;12.40;99.90;;;;;;5053092;28;20418;-82
2021/04/21 03:39:11;;;;;;;29.93;26.70;;;12.40;99.90;;;;;;5052880;28;20419;-82
2021/04/21 03:41:37;;;;;;;32.90;29.40;;;12.30;99.90;;;;;;5051673;28;20435;-83
2021/04/21 03:44:04;;;;;;;30.53;26.20;;;12.30;99.90;;;;;;5052890;28;20417;-82
2021/04/21 03:46:31;;;;;;;29.37;26.27;;;12.30;99.90;;;;;;5051657;28;20457;-81
2021/04/21 03:48:59;;;;;;;28.13;25.23;;;12.30;99.90;;;;;;5053059;28;20419;-81
2021/04/21 03:51:26;;;;;;;32.37;28.73;;;12.30;99.90;;;;;;5051795;28;20419;-81
2021/04/21 03:53:53;;;;;;;28.63;24.87;;;12.30;99.90;;;;;;5053167;28;20770;-82
2021/04/21 03:56:26;;;;;;;33.07;29.53;;;12.20;99.90;;;;;;5051443;28;20432;-81
2021/04/21 03:58:55;;;;;;;30.93;27.50;;;12.20;99.90;;;;;;5052778;28;20394;-81
2021/04/21 04:01:23;;;;;;;32.90;26.47;;;12.20;99.90;;;;;;5051390;28;20414;-81
2021/04/21 04:03:54;;;;;;;30.20;26.13;;;12.10;99.90;;;;;;5052225;28;20444;-82
2021/04/21 04:06:30;;;;;;;30.10;25.87;;;12.10;99.90;;;;;;5051456;28;20465;-81
2021/04/21 04:09:02;;;;;;;30.63;26.77;;;12.10;99.90;;;;;;5052590;28;20499;-81
2021/04/21 04:11:54;;;;;;;31.83;28.37;;;12.10;99.90;;;;;;5050733;28;20494;-81
2021/04/21 04:14:22;;;;;;;30.33;27.03;;;12.20;99.90;;;;;;5051715;28;20434;-81
2021/04/21 04:16:52;;;;;;;30.50;27.20;;;12.10;99.90;;;;;;5051918;28;20830;-81
2021/04/21 04:19:18;;;;;;;32.03;28.07;;;12.10;99.90;;;;;;5051376;28;20394;-80
2021/04/21 04:21:50;;;;;;;34.77;29.03;;;12.20;99.90;;;;;;5051818;28;20438;-81
2021/04/21 04:24:20;;;;;;;31.23;26.90;;;12.20;99.90;;;;;;5063338;28;20454;-80
2021/04/21 04:26:47;;;;;;;27.80;24.80;;;12.20;99.90;;;;;;5072080;28;20425;-81
2021/04/21 04:29:13;;;;;;;29.57;26.47;;;12.20;99.90;;;;;;5072236;28;20406;-82
2021/04/21 04:31:40;;;;;;;29.07;25.50;;;12.10;99.90;;;;;;5070892;28;20429;-81
2021/04/21 04:34:07;;;;;;;30.93;25.00;;;12.10;99.90;;;;;;5072253;28;20180;-81
2021/04/21 04:36:35;;;;;;;31.77;28.30;;;12.10;99.90;;;;;;5069995;28;20787;-81
2021/04/21 04:39:04;;;;;;;29.53;25.90;;;12.00;99.90;;;;;;5070402;28;20501;-82
2021/04/21 04:41:31;;;;;;;27.67;23.90;;;12.00;99.90;;;;;;5069933;28;20422;-81
2021/04/21 04:43:58;;;;;;;29.60;26.47;;;12.00;99.90;;;;;;5070256;28;20503;-81
2021/04/21 04:46:30;;;;;;;31.10;26.73;;;11.90;99.90;;;;;;5069943;28;20977;-81
2021/04/21 04:49:08;;;;;;;30.00;26.70;;;11.90;99.90;;;;;;5071091;28;20417;-82
2021/04/21 04:51:37;;;;;;;33.03;27.63;;;11.90;99.90;;;;;;5071266;28;20402;-81
2021/04/21 04:54:06;;;;;;;30.63;26.70;;;11.90;99.90;;;;;;5064388;28;20416;-81
2021/04/21 04:56:34;;;;;;;27.43;24.33;;;11.90;99.90;;;;;;5051439;28;20840;-81
2021/04/21 04:59:05;;;;;;;32.80;28.53;;;11.90;99.90;;;;;;5052046;28;20774;-81
2021/04/21 05:01:54;;;;;;;34.07;29.47;;;11.90;99.90;;;;;;5065134;28;20931;-81
2021/04/21 05:04:25;;;;;;;32.73;27.80;;;11.90;99.90;;;;;;5058455;28;20479;-80
2021/04/21 05:07:04;;;;;;;35.07;26.80;;;11.90;99.90;;;;;;5054394;28;20414;-81
2021/04/21 05:09:42;;;;;;;31.13;27.40;;;11.90;99.90;;;;;;5070802;28;20509;-80
2021/04/21 05:12:13;;;;;;;33.37;28.53;;;11.80;99.90;;;;;;5071726;28;20512;-81
2021/04/21 05:14:40;;;;;;;34.83;28.67;;;11.90;99.90;;;;;;5070952;28;20421;-81
2021/04/21 05:17:33;;;;;;;35.03;27.20;;;11.90;99.90;;;;;;5070509;28;20514;-80
2021/04/21 05:20:23;;;;;;;34.60;28.80;;;11.90;99.90;;;;;;5070803;28;20409;-81
2021/04/21 05:22:57;;;;;;;33.03;27.50;;;11.90;99.90;;;;;;5071749;28;20417;-81
2021/04/21 05:26:06;;;;;;;33.37;29.63;;;11.90;99.90;;;;;;5054599;28;20459;-80
2021/04/21 05:28:35;;;;;;;39.27;29.67;;;12.00;99.90;;;;;;5054621;28;20454;-80
2021/04/21 05:31:37;;;;;;;33.40;29.23;;;12.00;99.90;;;;;;5054925;28;20469;-80
2021/04/21 05:34:36;;;;;;;36.50;30.03;;;12.10;99.90;;;;;;5055196;28;20456;-81
2021/04/21 05:37:47;;;;;;;38.83;29.90;;;12.20;99.90;;;;;;5055459;28;20400;-81
2021/04/21 05:40:51;;;;;;;34.60;29.30;;;12.20;99.90;;;;;;5054791;28;21000;-81
2021/04/21 05:43:55;;;;;;;37.67;29.20;;;12.20;99.90;;;;;;5055365;28;20477;-81
2021/04/21 05:46:30;;;;;;;35.90;30.03;;;12.30;99.90;;;;;;5054600;28;20971;-79
2021/04/21 05:49:26;;;;;;;36.50;29.00;;;12.30;99.90;;;;;;5054710;28;20416;-81
2021/04/21 05:52:07;;;;;;;35.00;29.70;;;12.30;99.90;;;;;;5054775;28;20541;-81
2021/04/21 05:55:03;;;;;;;36.37;30.60;;;12.40;99.90;;;;;;5054036;28;20442;-81
2021/04/21 05:57:47;;;;;;;35.20;28.77;;;12.40;99.90;;;;;;5054171;28;20414;-81
2021/04/21 06:00:32;;;;;;;36.17;31.67;;;12.50;99.90;;;;;;5054493;28;20488;-81
2021/04/21 06:03:01;;;;;;;39.40;29.90;;;12.50;99.90;;;;;;5044692;28;20405;-81
2021/04/21 06:05:26;;;;;;;37.97;30.30;;;12.60;99.90;;;;;;5053261;28;20455;-81
2021/04/21 06:07:52;;;;;;;35.13;29.83;;;12.60;99.90;;;;;;5054151;28;20472;-81
2021/04/21 06:10:29;;;;;;;35.30;29.40;;;12.70;99.90;;;;;;5052935;28;20183;-81
2021/04/21 06:12:58;;;;;;;37.37;31.40;;;12.70;99.90;;;;;;5053230;28;20183;-81
2021/04/21 06:15:26;;;;;;;36.77;29.57;;;12.80;99.90;;;;;;5052708;28;20513;-80
2021/04/21 06:17:55;;;;;;;39.00;28.70;;;12.80;99.90;;;;;;5054464;28;20414;-82
2021/04/21 06:20:43;;;;;;;34.73;29.87;;;12.80;99.90;;;;;;5053873;28;20572;-79
2021/04/21 06:23:10;;;;;;;40.00;32.00;;;12.90;99.90;;;;;;5035182;28;20923;-82
2021/04/21 06:25:38;;;;;;;39.87;32.60;;;12.90;99.90;;;;;;5034579;28;20505;-82
2021/04/21 06:28:09;;;;;;;33.47;29.33;;;13.00;99.90;;;;;;5053508;28;20438;-81
2021/04/21 06:30:35;;;;;;;33.90;30.17;;;13.00;99.90;;;;;;5053336;28;20477;-81
2021/04/21 06:33:03;;;;;;;35.73;29.20;;;13.00;99.90;;;;;;5053142;28;20904;-82
2021/04/21 06:35:30;;;;;;;34.13;29.70;;;13.00;99.90;;;;;;5051833;28;20818;-82
2021/04/21 06:37:57;;;;;;;36.17;29.70;;;13.10;99.90;;;;;;5053885;28;20434;-82
2021/04/21 06:40:28;;;;;;;34.87;29.20;;;13.10;99.90;;;;;;5052284;28;20785;-80
2021/04/21 06:42:54;;;;;;;36.37;29.70;;;13.20;99.90;;;;;;5054563;28;20447;-81
2021/04/21 06:45:32;;;;;;;37.30;31.10;;;13.30;99.90;;;;;;5053587;28;20458;-81
2021/04/21 06:48:00;;;;;;;38.00;30.83;;;13.30;99.90;;;;;;5053520;28;20412;-79
2021/04/21 06:50:39;;;;;;;37.47;31.97;;;13.30;99.90;;;;;;5053372;28;20467;-79
2021/04/21 06:53:08;;;;;;;35.53;30.63;;;13.40;99.90;;;;;;5053671;28;20424;-81
2021/04/21 06:55:35;;;;;;;37.83;32.33;;;13.50;99.90;;;;;;5052982;28;20416;-81
2021/04/21 06:58:14;;;;;;;35.67;31.23;;;13.50;99.90;;;;;;5053823;28;20412;-81
2021/04/21 07:00:40;;;;;;;35.53;31.33;;;13.60;99.90;;;;;;5052966;28;20423;-81
2021/04/21 07:03:07;;;;;;;39.07;31.63;;;13.70;99.90;;;;;;5053403;28;20908;-81
2021/04/21 07:05:37;;;;;;;36.53;31.97;;;13.70;99.90;;;;;;5052403;28;20847;-81
2021/04/21 07:08:04;;;;;;;36.20;30.80;;;13.80;99.90;;;;;;5052640;28;20886;-81
2021/04/21 07:10:31;;;;;;;37.10;33.20;;;13.90;99.90;;;;;;5034407;28;20504;-81
2021/04/21 07:12:57;;;;;;;36.80;32.73;;;14.00;99.90;;;;;;5053418;28;20439;-80
2021/04/21 07:15:24;;;;;;;41.77;34.50;;;14.10;99.90;;;;;;5053307;28;20428;-79
2021/04/21 07:17:50;;;;;;;41.47;33.60;;;14.10;99.90;;;;;;5035027;28;20453;-81
2021/04/21 07:20:17;;;;;;;40.80;32.40;;;14.20;99.90;;;;;;5053080;28;20422;-79
2021/04/21 07:22:43;;;;;;;39.43;32.80;;;14.20;99.90;;;;;;5051442;28;20441;-81
2021/04/21 07:25:12;;;;;;;38.33;32.93;;;14.30;99.90;;;;;;5072090;28;20569;-82
2021/04/21 07:27:38;;;;;;;35.97;30.80;;;14.40;99.90;;;;;;5072297;28;20429;-80
2021/04/21 07:30:04;;;;;;;40.03;32.67;;;14.50;99.90;;;;;;5073235;28;20439;-81
2021/04/21 07:32:32;;;;;;;40.33;31.70;;;14.60;99.90;;;;;;5071239;28;20514;-80
2021/04/21 07:35:05;;;;;;;38.50;33.90;;;14.70;99.80;;;;;;5073034;28;20422;-81
2021/04/21 07:37:43;;;;;;;38.27;32.10;;;14.90;99.30;;;;;;5071578;28;20415;-80
2021/04/21 07:40:42;;;;;;;37.63;33.20;;;14.90;98.60;;;;;;5061942;28;20430;-81
2021/04/21 07:43:15;;;;;;;35.90;32.00;;;15.10;98.80;;;;;;5017622;28;20425;-81
2021/04/21 07:45:58;;;;;;;36.60;32.70;;;15.20;99.00;;;;;;5070966;28;20470;-76
2021/04/21 07:48:38;;;;;;;39.77;32.77;;;15.30;98.50;;;;;;5072719;28;20752;-77
2021/04/21 07:51:25;;;;;;;36.00;31.70;;;15.40;99.90;;;;;;5071331;28;20427;-76
2021/04/21 07:54:05;;;;;;;35.90;32.10;;;15.50;99.30;;;;;;5070601;28;20419;-77
2021/04/21 07:56:48;;;;;;;37.83;33.70;;;15.40;97.20;;;;;;5071365;28;20432;-77
2021/04/21 07:59:18;;;;;;;43.00;32.83;;;15.50;97.60;;;;;;5072497;28;20423;-77
2021/04/21 08:01:45;;;;;;;37.50;33.40;;;15.60;97.60;;;;;;5072069;28;20394;-77
2021/04/21 08:04:20;;;;;;;40.17;34.20;;;15.70;97.40;;;;;;5071859;28;20777;-77
2021/04/21 08:06:48;;;;;;;43.73;33.67;;;15.90;97.00;;;;;;5071504;28;20425;-77
2021/04/21 08:09:15;;;;;;;36.47;32.70;;;16.00;97.90;;;;;;5072531;28;20497;-77
2021/04/21 08:11:41;;;;;;;38.17;33.73;;;16.20;96.60;;;;;;5071594;28;20398;-77
2021/04/21 08:14:06;;;;;;;39.30;35.33;;;16.30;95.80;;;;;;5072365;28;20954;-77
2021/04/21 08:16:35;;;;;;;36.73;32.50;;;16.50;95.50;;;;;;5071235;28;20211;-76
2021/04/21 08:19:13;;;;;;;39.00;35.00;;;16.40;94.30;;;;;;5072033;28;20184;-77
2021/04/21 08:21:42;;;;;;;32.90;29.37;;;16.50;94.60;;;;;;5071556;28;20406;-77
2021/04/21 08:24:14;;;;;;;35.93;32.13;;;16.70;93.90;;;;;;5071502;28;20462;-77
2021/04/21 08:26:45;;;;;;;34.37;30.57;;;16.80;95.70;;;;;;5071531;28;20452;-77
2021/04/21 08:29:13;;;;;;;35.70;32.00;;;16.90;94.60;;;;;;5072549;28;20394;-77
2021/04/21 08:31:42;;;;;;;34.20;30.30;;;17.00;93.30;;;;;;5071228;28;20525;-77
2021/04/21 08:34:08;;;;;;;35.73;30.50;;;17.20;93.00;;;;;;5072433;28;20448;-77
2021/04/21 08:36:34;;;;;;;40.90;33.03;;;17.20;93.50;;;;;;5071230;28;20753;-76
2021/04/21 08:39:00;;;;;;;38.60;31.73;;;17.40;92.20;;;;;;5072129;28;20406;-77
2021/04/21 08:41:27;;;;;;;34.37;30.53;;;17.50;90.20;;;;;;5071552;28;20177;-77
2021/04/21 08:43:54;;;;;;;36.03;31.70;;;17.60;91.90;;;;;;5071144;28;20411;-78
2021/04/21 08:46:21;;;;;;;35.03;31.43;;;17.70;88.40;;;;;;5071987;28;20450;-77
2021/04/21 08:48:47;;;;;;;33.40;30.10;;;17.70;91.60;;;;;;5071042;28;20481;-77
2021/04/21 08:51:19;;;;;;;32.53;29.17;;;17.90;91.20;;;;;;5072192;28;20439;-77
2021/04/21 08:54:03;;;;;;;29.13;26.13;;;18.00;91.40;;;;;;5071317;28;20498;-77
2021/04/21 08:56:31;;;;;;;31.93;25.43;;;18.20;88.90;;;;;;5072016;28;20419;-77
2021/04/21 08:58:58;;;;;;;28.43;25.53;;;18.30;84.30;;;;;;5075519;28;20403;-77
2021/04/21 09:01:24;;;;;;;25.77;23.03;;;18.40;83.20;;;;;;5075884;28;20482;-78
2021/04/21 09:03:50;;;;;;;30.20;27.00;;;18.50;78.40;;;;;;5073910;28;20708;-77
2021/04/21 09:06:18;;;;;;;35.20;28.40;;;18.70;92.80;;;;;;5075727;28;20853;-78
2021/04/21 09:08:50;;;;;;;25.87;23.17;;;19.10;92.20;;;;;;5075299;28;20750;-78
2021/04/21 09:11:20;;;;;;;28.23;23.87;;;19.40;90.00;;;;;;5075750;28;20472;-78
2021/04/21 09:13:47;;;;;;;22.73;19.47;;;19.60;85.20;;;;;;5074901;28;20407;-77
2021/04/21 09:16:13;;;;;;;21.40;19.37;;;19.80;81.00;;;;;;5075679;28;20404;-78
2021/04/21 09:18:39;;;;;;;21.57;19.37;;;20.00;74.20;;;;;;5074814;28;20403;-78
2021/04/21 09:21:14;;;;;;;21.43;19.00;;;20.10;70.10;;;;;;5074411;28;20921;-77
2021/04/21 09:23:42;;;;;;;17.07;15.40;;;20.30;65.00;;;;;;5073217;28;20466;-77
2021/04/21 09:26:25;;;;;;;22.00;19.80;;;20.40;67.20;;;;;;5075345;28;20513;-78
2021/04/21 09:28:54;;;;;;;27.83;24.47;;;20.60;65.30;;;;;;5074692;28;20977;-78
2021/04/21 09:31:19;;;;;;;31.57;26.60;;;20.80;63.60;;;;;;5074163;28;20407;-78
2021/04/21 09:33:46;;;;;;;35.77;30.60;;;20.90;61.00;;;;;;5074462;28;20414;-78
2021/04/21 09:36:30;;;;;;;22.80;20.40;;;21.00;59.10;;;;;;5075057;28;20173;-77
2021/04/21 09:39:26;;;;;;;37.50;33.43;;;21.00;58.00;;;;;;5074521;28;20406;-77
2021/04/21 09:42:00;;;;;;;26.67;23.93;;;21.00;57.60;;;;;;5074046;28;20502;-78
2021/04/21 09:44:32;;;;;;;32.40;29.00;;;20.90;55.80;;;;;;5075067;28;20766;-76
2021/04/21 09:47:10;;;;;;;33.93;30.23;;;20.70;55.20;;;;;;5074695;28;20398;-76
2021/04/21 09:49:38;;;;;;;62.00;51.10;;;20.50;55.00;;;;;;5074442;28;20753;-75
2021/04/21 09:52:13;;;;;;;61.77;50.87;;;20.40;55.20;;;;;;5075085;28;20435;-77
2021/04/21 09:54:42;;;;;;;155.77;123.30;;;20.40;55.70;;;;;;5074230;28;20484;-77
2021/04/21 09:57:12;;;;;;;86.00;69.40;;;20.50;58.00;;;;;;5074904;28;20801;-77
2021/04/21 09:59:39;;;;;;;49.27;42.97;;;20.60;57.70;;;;;;5074076;28;20415;-77
2021/04/21 10:02:28;;;;;;;35.77;32.07;;;20.60;56.10;;;;;;5074849;28;20812;-77
2021/04/21 10:04:53;;;;;;;60.03;53.20;;;20.60;57.50;;;;;;5073973;28;20458;-77
2021/04/21 10:07:19;;;;;;;20.67;18.43;;;20.70;58.40;;;;;;5073562;28;20411;-77
2021/04/21 10:09:48;;;;;;;55.73;49.43;;;20.70;56.20;;;;;;5073070;28;20173;-76
2021/04/21 10:12:17;;;;;;;54.73;48.23;;;20.70;58.10;;;;;;5074417;28;20875;-77
2021/04/21 10:14:44;;;;;;;45.50;40.57;;;20.70;58.40;;;;;;5073857;28;20416;-76
2021/04/21 10:17:12;;;;;;;43.07;36.20;;;20.80;58.50;;;;;;5074547;28;20404;-77
2021/04/21 10:19:39;;;;;;;40.77;36.60;;;20.90;58.10;;;;;;5073873;28;20825;-76
2021/04/21 10:22:05;;;;;;;24.33;22.03;;;21.00;57.80;;;;;;5074075;28;20407;-76
2021/04/21 10:24:31;;;;;;;30.00;26.63;;;21.00;56.90;;;;;;5074181;28;20542;-76
2021/04/21 10:26:57;;;;;;;28.33;25.50;;;21.10;57.60;;;;;;5073502;28;21104;-76
2021/04/21 10:29:25;;;;;;;22.20;19.77;;;21.10;56.10;;;;;;5074173;28;20509;-76
2021/04/21 10:31:54;;;;;;;23.97;20.43;;;21.20;56.40;;;;;;5073289;28;20936;-76
2021/04/21 10:34:21;;;;;;;23.13;20.90;;;21.20;57.10;;;;;;5074225;28;20399;-76
2021/04/21 10:36:49;;;;;;;18.33;16.53;;;21.20;56.20;;;;;;5073477;28;20427;-76
2021/04/21 10:39:31;;;;;;;23.80;21.50;;;21.20;57.10;;;;;;5074315;28;20451;-77
2021/04/21 10:42:06;;;;;;;19.70;17.90;;;21.30;57.60;;;;;;5073115;28;20391;-76
2021/04/21 10:44:33;;;;;;;18.73;16.87;;;21.30;57.60;;;;;;5073902;28;20408;-76
2021/04/21 10:47:03;;;;;;;21.40;19.43;;;21.40;59.40;;;;;;5073200;28;20403;-76
2021/04/21 10:49:51;;;;;;;16.53;15.03;;;21.40;63.50;;;;;;5073993;28;20407;-76
2021/04/21 10:52:28;;;;;;;17.33;15.63;;;21.60;65.20;;;;;;5074327;28;20403;-76
2021/04/21 10:54:59;;;;;;;15.17;13.87;;;21.70;65.20;;;;;;5073327;28;20427;-79
2021/04/21 10:57:49;;;;;;;13.20;11.90;;;21.70;61.00;;;;;;5073821;28;20907;-79
2021/04/21 11:00:23;;;;;;;16.10;13.23;;;21.60;55.50;;;;;;5073281;28;20423;-77
2021/04/21 11:03:07;;;;;;;15.40;14.00;;;21.60;61.60;;;;;;5073008;28;20399;-79
2021/04/21 11:05:36;;;;;;;371.40;205.00;;;21.60;70.60;;;;;;5073642;28;20447;-78
2021/04/21 11:08:07;;;;;;;29.10;26.20;;;21.40;54.60;;;;;;5072976;28;20399;-75
2021/04/21 11:10:52;;;;;;;27.80;16.53;;;21.40;61.30;;;;;;5073460;28;20838;-77
2021/04/21 11:13:39;;;;;;;23.50;21.03;;;21.40;58.80;;;;;;5073232;28;20466;-76
2021/04/21 11:16:26;;;;;;;19.57;17.77;;;21.40;65.10;;;;;;5073289;28;20387;-81
2021/04/21 11:18:52;;;;;;;20.50;18.60;;;21.60;69.20;;;;;;5072556;28;20404;-77
2021/04/21 11:21:19;;;;;;;17.37;15.37;;;21.80;62.20;;;;;;5073366;28;20937;-77
2021/04/21 11:24:08;;;;;;;19.30;17.50;;;22.00;62.10;;;;;;5072000;28;20670;-77
2021/04/21 11:26:48;;;;;;;17.17;15.57;;;22.20;73.90;;;;;;5073208;28;20462;-77
2021/04/21 11:29:20;;;;;;;16.73;14.40;;;22.30;75.40;;;;;;5073197;28;20428;-77
2021/04/21 11:31:47;;;;;;;14.27;12.97;;;22.50;73.80;;;;;;5072359;28;20446;-76
2021/04/21 11:34:26;;;;;;;15.00;13.67;;;22.80;72.00;;;;;;5073091;28;20422;-77
2021/04/21 11:36:52;;;;;;;14.27;13.07;;;22.90;73.10;;;;;;5072312;28;20450;-77
2021/04/21 11:39:37;;;;;;;11.77;10.77;;;23.10;72.90;;;;;;5072948;28;20403;-77
2021/04/21 11:42:30;;;;;;;13.67;12.47;;;23.10;63.30;;;;;;5072457;28;20557;-77
2021/04/21 11:45:04;;;;;;;12.53;11.53;;;23.10;70.00;;;;;;5072036;28;20443;-77
2021/04/21 11:47:45;;;;;;;12.30;11.30;;;22.90;63.70;;;;;;5072605;28;20400;-76
2021/04/21 11:50:18;;;;;;;11.40;10.40;;;22.70;53.90;;;;;;5072796;28;20400;-76
2021/04/21 11:52:58;;;;;;;13.67;12.57;;;22.60;61.90;;;;;;5071882;28;20395;-76
2021/04/21 11:55:30;;;;;;;12.50;11.50;;;22.50;54.10;;;;;;5072758;28;20399;-76
2021/04/21 11:58:16;;;;;;;11.30;10.40;;;22.30;57.00;;;;;;5071854;28;20407;-75
2021/04/21 12:00:47;;;;;;;11.23;10.33;;;22.20;56.20;;;;;;5071807;28;20446;-75
2021/04/21 12:03:22;;;;;;;9.63;8.93;;;22.00;60.10;;;;;;5072270;28;20407;-75
2021/04/21 12:05:51;;;;;;;12.13;9.83;;;21.90;60.80;;;;;;5071681;28;20769;-83
2021/04/21 12:08:19;;;;;;;10.23;9.30;;;21.90;59.90;;;;;;5072429;28;20420;-75
2021/04/21 12:10:46;;;;;;;10.37;9.47;;;22.00;59.50;;;;;;5071601;28;20769;-75
2021/04/21 12:13:31;;;;;;;10.70;9.80;;;22.10;58.80;;;;;;5072456;28;20395;-76
2021/04/21 12:16:03;;;;;;;12.00;11.00;;;22.10;57.90;;;;;;5071644;28;20450;-75
2021/04/21 12:18:32;;;;;;;10.70;9.80;;;22.10;55.50;;;;;;5072401;28;20906;-75
2021/04/21 12:20:59;;;;;;;12.23;11.13;;;22.20;55.20;;;;;;5071831;28;20423;-75
2021/04/21 12:23:34;;;;;;;11.37;10.37;;;22.20;57.30;;;;;;5070809;28;20934;-75
2021/04/21 12:26:03;;;;;;;12.70;11.80;;;22.20;55.40;;;;;;5071463;28;20809;-75
2021/04/21 12:28:41;;;;;;;11.47;10.10;;;22.20;54.90;;;;;;5072212;28;20454;-75
2021/04/21 12:31:07;;;;;;;12.33;11.40;;;22.00;52.80;;;;;;5071489;28;20404;-75
2021/04/21 12:33:34;;;;;;;11.97;10.97;;;21.90;51.70;;;;;;5071610;28;20446;-75
2021/04/21 12:35:59;;;;;;;11.67;10.67;;;21.90;51.00;;;;;;5071145;28;20629;-75
2021/04/21 12:38:27;;;;;;;11.70;10.70;;;21.90;50.80;;;;;;5072007;28;20579;-75
2021/04/21 12:40:53;;;;;;;12.77;11.67;;;21.90;50.40;;;;;;5070893;28;20177;-75
2021/04/21 12:43:19;;;;;;;12.57;11.47;;;21.80;49.80;;;;;;5072252;28;20751;-75
2021/04/21 12:45:45;;;;;;;13.10;12.00;;;21.60;49.50;;;;;;5071484;28;20447;-75
2021/04/21 12:48:27;;;;;;;14.40;13.20;;;21.60;50.40;;;;;;5072049;28;20181;-80
2021/04/21 12:50:57;;;;;;;193.80;158.77;;;21.50;50.00;;;;;;5071228;28;20411;-78
2021/04/21 12:53:32;;;;;;;48.13;41.03;;;21.50;52.80;;;;;;5071866;28;20796;-81
2021/04/21 12:56:08;;;;;;;15.50;14.10;;;21.40;54.40;;;;;;5071231;28;20411;-78
2021/04/21 12:58:36;;;;;;;14.37;13.07;;;21.20;55.10;;;;;;5072383;28;20426;-79
2021/04/21 13:01:14;;;;;;;13.20;12.10;;;21.10;53.00;;;;;;5069869;28;20990;-79
2021/04/21 13:04:02;;;;;;;14.67;13.37;;;21.10;53.20;;;;;;5071805;28;20411;-79